Nearby METAR Reports

 

KBJC - Broomfield/Jeffc, Colorado, USA
Distance from station: NNW 11mi, 17km
Updated: 09/23/2018 11:47am
Partly cloudy
Partly cloudy
 Wind from SSE
Wind: SSE 10 mph , 17 km/h
Temperature: 82°F , 28°C
Dew Point: 25°F , -4°C
Humidity: 12%
Barometer: 30.07 inHg , 1018.3 hPa
Clouds: Partly cloudy
Visibility: 30 miles , 48 km
Cloud details: Few Clouds 12000 ft
Partly cloudy 20000 ft
2018/09/23 17:47 KBJC 231747Z 15009KT 30SM FEW120 SCT200 28/M04 A3007
KBKF - Buckley Angb/Den, Colorado, USA
Distance from station: E 16mi, 25km
Updated: 09/23/2018 11:58am
Few Clouds
Few Clouds
 Wind from E
Wind: E 3 mph , 6 km/h
Temperature: 81°F , 27°C
Dew Point: 23°F , -5°C
Humidity: 12%
Barometer: 30.08 inHg , 1018.6 hPa
Clouds: Few Clouds
Visibility: 10 miles , 16 km
Cloud details: Few Clouds 13000 ft
Few Clouds 22000 ft
2018/09/23 17:58 KBKF 231758Z 08003KT 10SM FEW130 FEW220 27/M05 A3008 RMK AO2A SLP109 T02691049 10271 20129 58010
 
KAPA - Denver/Arapahoe, Colorado, USA
Distance from station: SE 16mi, 26km
Updated: 09/23/2018 11:53am
Few Clouds
Few Clouds
 Wind from varies
Wind: varies 3 mph , 6 km/h
Temperature: 79°F , 26°C
Dew Point: 27°F , -3°C
Humidity: 15%
Barometer: 30.09 inHg , 1019 hPa
Clouds: Few Clouds
Visibility: 10 miles , 16 km
Cloud details: Few Clouds 12000 ft
Few Clouds 18000 ft
2018/09/23 17:53 KAPA 231753Z VRB03KT 10SM FEW120 FEW180 26/M03 A3009 RMK AO2 SLP114 T02611028 10272 20172 58011
KEIK - Erie Muni, Colorado, USA
Distance from station: N 18mi, 29km
Updated: 09/23/2018 12:12pm
Clear
Clear
 Wind from SE
Wind: SE 9 mph , 15 km/h
Temperature: 86°F , 30°C
Dew Point: 21°F , -6°C
Humidity: 9%
Barometer: 30.06 inHg , 1017.9 hPa
Clouds: Clear
Visibility: 10 miles , 16 km
2018/09/23 18:12 KEIK 231812Z AUTO 14008KT 10SM CLR 30/M06 A3006 RMK AO2 T02961059
 
KBDU - Boulder Muni, Colorado, USA
Distance from station: NNW 22mi, 35km
Updated: 09/23/2018 12:12pm
Partly cloudy
Partly cloudy
 Wind from NNW
Wind: NNW 9 mph , 15 km/h
Temperature: 84°F , 29°C
Dew Point: 30°F , -1°C
Humidity: 14%
Barometer: 30.02 inHg , 1016.6 hPa
Clouds: Partly cloudy
Visibility: 10 miles , 16 km
Cloud details: Partly cloudy 12000 ft
2018/09/23 18:12 KBDU 231812Z AUTO 34008KT 10SM SCT120 29/M01 A3002 RMK AO2
KDEN - Denver (dia), Colorado, USA
Distance from station: ENE 22mi, 35km
Updated: 09/23/2018 11:53am
Few Clouds
Few Clouds
 Wind from W
Wind: W 5 mph , 7 km/h
Temperature: 82°F , 28°C
Dew Point: 18°F , -8°C
Humidity: 9%
Barometer: 30.06 inHg , 1017.9 hPa
Clouds: Few Clouds
Visibility: 10 miles , 16 km
Cloud details: Few Clouds 13000 ft
Few Clouds 20000 ft
2018/09/23 17:53 KDEN 231753Z 28004KT 10SM FEW130 FEW200 28/M08 A3006 RMK AO2 SLP095 T02831078 10283 20139 58010
 
KFTG - Denver F. Range, Colorado, USA
Distance from station: E 26mi, 42km
Updated: 09/23/2018 11:52am

 Wind from NW
Wind: NW 5 mph , 7 km/h
Visibility: 10 miles , 16 km
2018/09/23 17:52 KFTG 231752Z 31004KT 10SM FEW40 SCT250 29/M06 A3007
KLMO - Longmont/Vbrand, Colorado, USA
Distance from station: NNW 29mi, 47km
Updated: 09/23/2018 12:15pm
Partly cloudy
Partly cloudy
 Wind from W
Wind: W 14 mph , 22 km/h
Temperature: 86°F , 30°C
Dew Point: 28°F , -2°C
Humidity: 12%
Barometer: 30.01 inHg , 1016.3 hPa
Clouds: Partly cloudy
Visibility: 10 miles , 16 km
Cloud details: Partly cloudy 12000 ft
2018/09/23 18:15 KLMO 231815Z AUTO 27012KT 10SM SCT120 30/M02 A3001 RMK AO2 T02951025
 
K0CO - Berthoud Pass, Colorado, USA
Distance from station: W 39mi, 62km
Updated: 09/23/2018 12:24pm
Mostly cloudy
Mostly cloudy
 Wind from WNW
Wind: WNW 24 mph , 39 km/h, Gust: 39 mph , 63 km/h
Temperature: 45°F , 7°C
Wind Chill: 36°F , 2°C
Dew Point: 30°F , -1°C
Humidity: 57%
Barometer: 30.54 inHg , 1034.2 hPa
Clouds: Mostly cloudy
Visibility: 10 miles , 16 km
Cloud details: Mostly cloudy 5000 ft
2018/09/23 18:24 K0CO 231824Z AUTO 29021G34KT 10SM BKN050 07/M01 A3054 RMK AO2
KMNH - Monument/Elbert, Colorado, USA
Distance from station: SSE 43mi, 68km
Updated: 09/23/2018 12:06pm
Clear
Clear
 Wind from SW
Wind: SW 3 mph , 6 km/h
Temperature: 73°F , 23°C
Dew Point: 23°F , -5°C
Humidity: 15%
Barometer: 30.18 inHg , 1022 hPa
Clouds: Clear
Visibility: 10 miles , 16 km
2018/09/23 18:06 KMNH 231806Z AUTO 22003KT 10SM CLR 23/M05 A3018 RMK AO2
 
KFNL - Ft Collins/Lovel, Colorado, USA
Distance from station: N 48mi, 78km
Updated: 09/23/2018 11:56am
Haze, Clear
Haze, Clear
 Wind from SE
Wind: SE 13 mph , 20 km/h
Temperature: 82°F , 28°C
Dew Point: 32°F , 0°C
Humidity: 16%
Barometer: 30.01 inHg , 1016.3 hPa
Summary: Haze
Clouds: Clear
Visibility: 4 miles , 6 km
2018/09/23 17:56 KFNL 231756Z AUTO 13011KT 4SM HZ CLR 28/00 A3001 RMK AO2 SLP101 6//// T02830000 10289 20100 58015 PNO $